createdAt,value
2022-10-11T00:00:18.219Z,7.93
2022-10-11T00:02:45.479Z,7.07
2022-10-11T00:05:12.431Z,7.70
2022-10-11T00:07:39.610Z,7.50
2022-10-11T00:10:07.678Z,8.17
2022-10-11T00:12:36.208Z,9.13
2022-10-11T00:15:04.907Z,8.97
2022-10-11T00:17:32.379Z,9.20
2022-10-11T00:19:59.430Z,9.10
2022-10-11T00:22:26.435Z,7.43
2022-10-11T00:24:53.408Z,8.63
2022-10-11T00:27:20.369Z,8.80
2022-10-11T00:29:47.325Z,7.93
2022-10-11T00:32:14.283Z,10.93
2022-10-11T00:34:41.194Z,13.33
2022-10-11T00:37:08.139Z,10.97
2022-10-11T00:39:35.314Z,10.37
2022-10-11T00:42:02.350Z,10.60
2022-10-11T00:44:32.279Z,10.83
2022-10-11T00:47:06.332Z,13.00
2022-10-11T00:49:42.030Z,11.73
2022-10-11T00:52:17.290Z,10.70
2022-10-11T00:54:46.878Z,10.63
2022-10-11T00:57:18.993Z,10.37
2022-10-11T00:59:51.328Z,9.50
2022-10-11T01:02:19.376Z,10.27
2022-10-11T01:04:46.375Z,13.00
2022-10-11T01:07:13.826Z,7.90
2022-10-11T01:09:40.660Z,7.73
2022-10-11T01:12:18.432Z,8.37
2022-10-11T01:14:58.281Z,8.03
2022-10-11T01:17:25.432Z,8.33
2022-10-11T01:20:28.436Z,7.80
2022-10-11T01:23:13.319Z,10.23
2022-10-11T01:26:04.601Z,10.60
2022-10-11T01:29:04.032Z,8.03
2022-10-11T01:31:53.951Z,7.97
2022-10-11T01:34:25.359Z,8.20
2022-10-11T01:37:05.232Z,9.13
2022-10-11T01:39:48.467Z,8.57
2022-10-11T01:42:18.689Z,31.77
2022-10-11T01:44:49.275Z,40.47
2022-10-11T01:47:20.560Z,24.33
2022-10-11T01:49:54.582Z,37.57
2022-10-11T01:52:21.843Z,22.37
2022-10-11T01:55:09.643Z,21.63
2022-10-11T01:57:58.407Z,14.90
2022-10-11T02:00:32.285Z,12.13
2022-10-11T02:02:59.362Z,11.73
2022-10-11T02:05:41.552Z,10.33
2022-10-11T02:08:14.114Z,11.30
2022-10-11T02:10:59.101Z,11.63
2022-10-11T02:13:34.491Z,12.47
2022-10-11T02:16:04.746Z,14.17
2022-10-11T02:18:39.341Z,13.50
2022-10-11T02:21:09.920Z,13.27
2022-10-11T02:23:41.935Z,12.17
2022-10-11T02:26:11.389Z,12.40
2022-10-11T02:28:40.618Z,10.63
2022-10-11T02:31:10.327Z,10.17
2022-10-11T02:33:55.637Z,9.43
2022-10-11T02:36:50.909Z,10.57
2022-10-11T02:39:25.082Z,10.53
2022-10-11T02:41:56.443Z,11.77
2022-10-11T02:44:34.094Z,10.87
2022-10-11T02:47:01.938Z,10.17
2022-10-11T02:49:30.915Z,8.97
2022-10-11T02:51:59.222Z,7.30
2022-10-11T02:54:27.122Z,6.97
2022-10-11T02:56:54.127Z,7.47
2022-10-11T02:59:21.285Z,7.20
2022-10-11T03:01:48.461Z,8.37
2022-10-11T03:04:15.561Z,8.93
2022-10-11T03:06:42.688Z,8.60
2022-10-11T03:09:09.776Z,7.60
2022-10-11T03:11:36.718Z,6.33
2022-10-11T03:14:03.703Z,7.33
2022-10-11T03:16:30.625Z,6.33
2022-10-11T03:18:57.581Z,7.87
2022-10-11T03:21:25.313Z,8.50
2022-10-11T03:23:52.406Z,11.17
2022-10-11T03:26:19.477Z,7.27
2022-10-11T03:28:46.531Z,8.33
2022-10-11T03:31:13.723Z,10.00
2022-10-11T03:33:40.853Z,9.73
2022-10-11T03:36:09.082Z,9.93
2022-10-11T03:38:36.150Z,9.57
2022-10-11T03:41:03.461Z,10.20
2022-10-11T03:43:30.548Z,9.57
2022-10-11T03:45:57.457Z,9.57
2022-10-11T03:48:24.379Z,10.53
2022-10-11T03:50:51.712Z,9.77
2022-10-11T03:53:18.881Z,9.67
2022-10-11T03:55:46.059Z,9.03
2022-10-11T03:58:13.297Z,8.50
2022-10-11T04:00:40.311Z,8.90
2022-10-11T04:03:07.380Z,8.83
2022-10-11T04:05:34.705Z,9.57
2022-10-11T04:08:01.737Z,7.97
2022-10-11T04:10:29.227Z,8.43
2022-10-11T04:12:56.174Z,7.33
2022-10-11T04:15:23.331Z,8.50
2022-10-11T04:17:50.580Z,7.73
2022-10-11T04:20:17.652Z,8.30
2022-10-11T04:22:44.795Z,8.20
2022-10-11T04:25:15.098Z,8.77
2022-10-11T04:27:42.286Z,8.57
2022-10-11T04:30:10.048Z,8.20
2022-10-11T04:32:37.071Z,8.67
2022-10-11T04:35:04.926Z,7.93
2022-10-11T04:37:31.891Z,7.63
2022-10-11T04:39:59.257Z,7.90
2022-10-11T04:42:26.197Z,6.93
2022-10-11T04:44:53.252Z,8.80
2022-10-11T04:47:20.307Z,7.67
2022-10-11T04:49:47.287Z,8.93
2022-10-11T04:52:14.202Z,8.80
2022-10-11T04:54:41.215Z,8.57
2022-10-11T04:57:08.140Z,9.20
2022-10-11T04:59:35.701Z,9.57
2022-10-11T05:02:02.619Z,9.87
2022-10-11T05:04:29.614Z,10.43
2022-10-11T05:06:56.531Z,10.57
2022-10-11T05:09:23.604Z,9.10
2022-10-11T05:11:50.516Z,9.77
2022-10-11T05:14:17.410Z,10.10
2022-10-11T05:16:44.320Z,10.10
2022-10-11T05:19:11.417Z,12.63
2022-10-11T05:21:38.505Z,12.40
2022-10-11T05:24:06.071Z,13.10
2022-10-11T05:26:33.149Z,13.83
2022-10-11T05:29:00.318Z,12.83
2022-10-11T05:31:27.445Z,14.30
2022-10-11T05:33:54.316Z,13.23
2022-10-11T05:36:21.460Z,11.80
2022-10-11T05:38:48.378Z,11.83
2022-10-11T05:41:20.972Z,12.03
2022-10-11T05:43:47.922Z,11.63
2022-10-11T05:46:15.207Z,9.60
2022-10-11T05:48:42.418Z,10.60
2022-10-11T05:51:11.289Z,10.40
2022-10-11T05:53:39.059Z,9.73
2022-10-11T05:56:16.794Z,15.13
2022-10-11T05:58:43.619Z,10.80
2022-10-11T06:01:17.821Z,10.63
2022-10-11T06:03:44.845Z,14.63
2022-10-11T06:06:11.977Z,12.27
2022-10-11T06:08:39.009Z,10.10
2022-10-11T06:11:21.602Z,9.13
2022-10-11T06:13:49.058Z,13.33
2022-10-11T06:16:16.529Z,8.33
2022-10-11T06:18:43.771Z,8.00
2022-10-11T06:21:10.775Z,7.73
2022-10-11T06:23:37.752Z,7.47
2022-10-11T06:26:09.356Z,6.43
2022-10-11T06:28:37.503Z,5.70
2022-10-11T06:31:06.314Z,6.43
2022-10-11T06:33:33.837Z,7.07
2022-10-11T06:36:04.307Z,6.73
2022-10-11T06:38:34.616Z,7.07
2022-10-11T06:41:19.719Z,20.07
2022-10-11T06:43:49.471Z,7.73
2022-10-11T06:46:20.497Z,5.17
2022-10-11T06:48:50.789Z,5.13
2022-10-11T06:51:24.540Z,5.30
2022-10-11T06:53:55.583Z,5.50
2022-10-11T06:56:23.050Z,5.20
2022-10-11T06:58:51.826Z,5.13
2022-10-11T07:01:25.987Z,4.95
2022-10-11T07:03:55.427Z,11.30
2022-10-11T07:06:25.563Z,9.88
2022-10-11T07:08:53.827Z,7.78
2022-10-11T07:11:27.931Z,11.73
2022-10-11T07:13:58.102Z,12.60
2022-10-11T07:16:26.329Z,20.63
2022-10-11T07:19:06.832Z,7.67
2022-10-11T07:21:35.595Z,6.37
2022-10-11T07:24:03.683Z,7.80
2022-10-11T07:26:37.446Z,6.63
2022-10-11T07:29:09.532Z,7.17
2022-10-11T07:31:38.201Z,6.80
2022-10-11T07:34:05.422Z,6.30
2022-10-11T07:36:32.461Z,6.57
2022-10-11T07:38:59.376Z,6.80
2022-10-11T07:41:26.555Z,6.33
2022-10-11T07:43:54.879Z,6.73
2022-10-11T07:46:22.160Z,6.93
2022-10-11T07:48:50.326Z,6.83
2022-10-11T07:51:20.474Z,6.70
2022-10-11T07:53:49.985Z,7.27
2022-10-11T07:56:20.641Z,8.73
2022-10-11T07:58:52.370Z,7.87
2022-10-11T08:01:20.717Z,8.17
2022-10-11T08:03:48.538Z,8.17
2022-10-11T08:06:18.374Z,8.87
2022-10-11T08:08:45.468Z,8.17
2022-10-11T08:11:21.334Z,8.97
2022-10-11T08:13:48.829Z,7.93
2022-10-11T08:16:16.487Z,8.93
2022-10-11T08:18:43.593Z,8.47
2022-10-11T08:21:12.430Z,8.13
2022-10-11T08:23:40.002Z,9.20
2022-10-11T08:26:07.792Z,9.20
2022-10-11T08:28:35.297Z,8.17
2022-10-11T08:31:03.007Z,9.23
2022-10-11T08:33:31.177Z,9.50
2022-10-11T08:35:58.458Z,9.70
2022-10-11T08:38:25.851Z,9.97
2022-10-11T08:40:57.877Z,9.40
2022-10-11T08:43:50.579Z,8.75
2022-10-11T08:46:23.673Z,8.35
2022-10-11T08:48:55.126Z,7.35
2022-10-11T08:51:32.220Z,7.82
2022-10-11T08:54:14.566Z,7.18
2022-10-11T08:56:43.311Z,7.00
2022-10-11T08:59:13.439Z,7.00
2022-10-11T09:02:03.451Z,7.60
2022-10-11T09:04:32.286Z,7.28
2022-10-11T09:07:24.329Z,7.10
2022-10-11T09:10:00.347Z,7.47
2022-10-11T09:12:49.343Z,6.85
2022-10-11T09:15:19.021Z,6.93
2022-10-11T09:17:52.806Z,6.82
2022-10-11T09:20:22.754Z,6.72
2022-10-11T09:23:08.422Z,5.65
2022-10-11T09:25:51.908Z,5.97
2022-10-11T09:28:22.138Z,5.82
2022-10-11T09:30:51.332Z,5.68
2022-10-11T09:33:34.141Z,5.40
2022-10-11T09:36:02.871Z,5.53
2022-10-11T09:38:40.536Z,4.88
2022-10-11T09:41:23.456Z,4.75
2022-10-11T09:43:51.822Z,4.97
2022-10-11T09:46:24.718Z,5.57
2022-10-11T09:48:52.344Z,4.95
2022-10-11T09:51:23.595Z,4.85
2022-10-11T09:53:58.494Z,4.43
2022-10-11T09:56:28.348Z,4.28
2022-10-11T09:59:26.888Z,4.32
2022-10-11T10:02:27.338Z,5.10
2022-10-11T10:04:55.490Z,4.97
2022-10-11T10:07:22.535Z,4.55
2022-10-11T10:09:50.208Z,4.50
2022-10-11T10:12:23.909Z,4.40
2022-10-11T10:15:17.637Z,4.60
2022-10-11T10:17:52.388Z,4.10
2022-10-11T10:20:31.744Z,3.92
2022-10-11T10:23:10.927Z,3.67
2022-10-11T10:25:43.252Z,3.83
2022-10-11T10:28:25.750Z,3.75
2022-10-11T10:30:59.375Z,3.72
2022-10-11T10:33:32.832Z,3.03
2022-10-11T10:36:15.209Z,3.63
2022-10-11T10:38:58.562Z,2.97
2022-10-11T10:41:26.235Z,3.17
2022-10-11T10:43:59.672Z,3.13
2022-10-11T10:46:51.610Z,2.90
2022-10-11T10:50:00.357Z,2.60
2022-10-11T10:52:53.654Z,2.60
2022-10-11T10:55:32.971Z,2.83
2022-10-11T10:58:06.029Z,2.63
2022-10-11T11:00:52.773Z,2.90
2022-10-11T11:03:47.927Z,2.90
2022-10-11T11:06:36.579Z,2.72
2022-10-11T11:09:22.115Z,3.10
2022-10-11T11:11:49.121Z,3.13
2022-10-11T11:14:40.231Z,2.60
2022-10-11T11:17:37.204Z,2.92
2022-10-11T11:20:33.675Z,3.00
2022-10-11T11:23:27.188Z,2.80
2022-10-11T11:26:15.235Z,2.65
2022-10-11T11:29:00.759Z,2.83
2022-10-11T11:31:57.749Z,3.63
2022-10-11T11:34:43.620Z,4.25
2022-10-11T11:37:41.758Z,2.85
2022-10-11T11:40:23.553Z,2.22
2022-10-11T11:42:53.724Z,2.85
2022-10-11T11:45:26.135Z,2.10
2022-10-11T11:48:08.582Z,2.63
2022-10-11T11:50:40.218Z,2.83
2022-10-11T11:53:18.339Z,2.67
2022-10-11T11:55:56.728Z,2.70
2022-10-11T11:59:05.099Z,2.58
2022-10-11T12:01:46.969Z,2.15
2022-10-11T12:04:29.463Z,2.60
2022-10-11T12:07:21.376Z,2.78
2022-10-11T12:09:52.441Z,2.50
2022-10-11T12:12:36.231Z,3.28
2022-10-11T12:15:27.011Z,2.30
2022-10-11T12:17:57.451Z,2.17
2022-10-11T12:20:32.291Z,2.90
2022-10-11T12:23:05.309Z,2.47
2022-10-11T12:25:36.619Z,2.25
2022-10-11T12:28:42.456Z,2.25
2022-10-11T12:31:20.408Z,2.95
2022-10-11T12:33:47.278Z,2.50
2022-10-11T12:36:34.490Z,2.40
2022-10-11T12:39:19.922Z,2.30
2022-10-11T12:41:49.929Z,2.95
2022-10-11T12:44:22.279Z,2.53
2022-10-11T12:46:54.679Z,2.60
2022-10-11T12:49:21.494Z,2.58
2022-10-11T12:52:18.961Z,2.38
2022-10-11T12:54:58.488Z,2.50
2022-10-11T12:58:06.105Z,2.42
2022-10-11T13:00:51.679Z,2.60
2022-10-11T13:03:42.338Z,2.60
2022-10-11T13:06:15.386Z,2.15
2022-10-11T13:08:47.408Z,3.28
2022-10-11T13:11:20.656Z,2.30
2022-10-11T13:13:56.764Z,2.28
2022-10-11T13:16:27.617Z,2.08
2022-10-11T13:18:59.928Z,2.58
2022-10-11T13:21:36.562Z,2.50
2022-10-11T13:24:18.510Z,2.22
2022-10-11T13:26:48.042Z,2.80
2022-10-11T13:29:27.661Z,2.22
2022-10-11T13:31:54.774Z,2.28
2022-10-11T13:34:23.588Z,2.60
2022-10-11T13:36:56.844Z,2.70
2022-10-11T13:39:31.300Z,2.28
2022-10-11T13:41:59.687Z,2.00
2022-10-11T13:44:27.082Z,2.30
2022-10-11T13:46:54.129Z,2.00
2022-10-11T13:49:26.140Z,2.10
2022-10-11T13:52:02.073Z,1.92
2022-10-11T13:55:06.021Z,2.63
2022-10-11T13:57:48.327Z,2.38
2022-10-11T14:00:15.211Z,1.92
2022-10-11T14:02:49.285Z,2.30
2022-10-11T14:05:28.866Z,2.10
2022-10-11T14:07:58.642Z,2.30
2022-10-11T14:10:26.054Z,2.30
2022-10-11T14:13:09.210Z,2.45
2022-10-11T14:15:38.086Z,2.00
2022-10-11T14:18:33.609Z,2.50
2022-10-11T14:21:18.931Z,2.63
2022-10-11T14:23:46.896Z,2.10
2022-10-11T14:26:18.754Z,2.47
2022-10-11T14:28:48.974Z,2.10
2022-10-11T14:31:15.929Z,1.85
2022-10-11T14:33:45.214Z,2.25
2022-10-11T14:36:12.146Z,2.28
2022-10-11T14:38:39.107Z,2.55
2022-10-11T14:41:06.453Z,2.38
2022-10-11T14:43:33.497Z,1.90
2022-10-11T14:46:00.370Z,2.10
2022-10-11T14:48:43.423Z,1.92
2022-10-11T14:51:15.892Z,2.40
2022-10-11T14:53:46.274Z,2.28
2022-10-11T14:56:17.802Z,1.75
2022-10-11T14:58:48.267Z,2.10
2022-10-11T15:01:17.299Z,2.33
2022-10-11T15:03:44.609Z,2.10
2022-10-11T15:06:33.329Z,2.50
2022-10-11T15:09:00.377Z,2.55
2022-10-11T15:11:27.302Z,1.90
2022-10-11T15:13:54.187Z,2.20
2022-10-11T15:16:22.026Z,2.63
2022-10-11T15:18:52.001Z,2.25
2022-10-11T15:21:21.003Z,2.00
2022-10-11T15:23:49.144Z,2.30
2022-10-11T15:26:22.236Z,2.05
2022-10-11T15:28:53.343Z,2.53
2022-10-11T15:31:20.724Z,2.30
2022-10-11T15:33:47.750Z,2.28
2022-10-11T15:36:17.821Z,2.45
2022-10-11T15:38:45.710Z,2.88
2022-10-11T15:41:15.661Z,3.45
2022-10-11T15:43:44.112Z,2.92
2022-10-11T15:46:19.652Z,2.90
2022-10-11T15:48:47.214Z,2.33
2022-10-11T15:51:15.535Z,2.53
2022-10-11T15:53:42.529Z,2.20
2022-10-11T15:56:15.277Z,2.30
2022-10-11T15:58:43.208Z,2.43
2022-10-11T16:01:18.614Z,2.60
2022-10-11T16:03:47.881Z,3.00
2022-10-11T16:06:15.207Z,2.80
2022-10-11T16:08:42.418Z,3.03
2022-10-11T16:11:10.706Z,2.83
2022-10-11T16:13:37.966Z,2.50
2022-10-11T16:16:08.147Z,2.40
2022-10-11T16:18:45.275Z,2.97
2022-10-11T16:21:15.548Z,2.60
2022-10-11T16:23:43.027Z,2.60
2022-10-11T16:26:13.649Z,2.20
2022-10-11T16:28:41.962Z,2.60
2022-10-11T16:31:18.106Z,2.50
2022-10-11T16:33:46.149Z,2.80
2022-10-11T16:36:32.220Z,2.87
2022-10-11T16:39:00.699Z,2.60
2022-10-11T16:41:27.867Z,3.20
2022-10-11T16:43:55.855Z,2.90
2022-10-11T16:46:23.218Z,3.30
2022-10-11T16:48:50.162Z,2.97
2022-10-11T16:51:17.049Z,2.90
2022-10-11T16:53:43.918Z,2.90
2022-10-11T16:56:12.069Z,3.60
2022-10-11T16:58:39.101Z,3.20
2022-10-11T17:01:11.205Z,2.77
2022-10-11T17:03:39.077Z,2.83
2022-10-11T17:06:07.536Z,2.57
2022-10-11T17:08:36.129Z,2.90
2022-10-11T17:11:04.109Z,2.80
2022-10-11T17:13:31.191Z,3.30
2022-10-11T17:15:58.636Z,3.30
2022-10-11T17:18:25.950Z,3.10
2022-10-11T17:21:04.832Z,3.70
2022-10-11T17:23:33.119Z,3.60
2022-10-11T17:26:10.075Z,4.73
2022-10-11T17:28:38.973Z,3.60
2022-10-11T17:31:07.655Z,3.07
2022-10-11T17:33:37.858Z,3.67
2022-10-11T17:36:21.690Z,3.03
2022-10-11T17:38:49.583Z,4.07
2022-10-11T17:41:17.301Z,3.13
2022-10-11T17:43:44.680Z,3.87
2022-10-11T17:46:14.412Z,10.23
2022-10-11T17:48:42.053Z,5.80
2022-10-11T17:51:11.696Z,6.40
2022-10-11T17:53:38.955Z,5.33
2022-10-11T17:56:12.508Z,5.40
2022-10-11T17:58:40.160Z,5.67
2022-10-11T18:01:12.153Z,6.30
2022-10-11T18:03:39.628Z,5.03
2022-10-11T18:06:08.601Z,4.67
2022-10-11T18:08:40.130Z,5.50
2022-10-11T18:11:12.939Z,4.43
2022-10-11T18:13:43.245Z,4.73
2022-10-11T18:16:11.086Z,4.40
2022-10-11T18:18:38.566Z,4.97
2022-10-11T18:21:05.739Z,4.60
2022-10-11T18:23:32.834Z,5.30
2022-10-11T18:25:59.876Z,5.13
2022-10-11T18:28:26.985Z,6.10
2022-10-11T18:30:55.517Z,6.63
2022-10-11T18:33:22.514Z,6.70
2022-10-11T18:35:49.434Z,6.33
2022-10-11T18:38:16.405Z,5.80
2022-10-11T18:40:47.058Z,6.33
2022-10-11T18:43:14.636Z,6.63
2022-10-11T18:45:43.013Z,6.73
2022-10-11T18:48:09.956Z,6.67
2022-10-11T18:50:37.169Z,8.10
2022-10-11T18:55:31.983Z,6.70
2022-10-11T18:57:59.233Z,6.80
2022-10-11T19:00:41.880Z,7.40
2022-10-11T19:03:08.906Z,7.30
2022-10-11T19:05:39.078Z,7.43
2022-10-11T19:08:06.234Z,9.47
2022-10-11T19:10:34.319Z,7.87
2022-10-11T19:13:01.407Z,6.17
2022-10-11T19:15:29.022Z,5.87
2022-10-11T19:17:56.003Z,4.90
2022-10-11T19:20:22.991Z,5.97
2022-10-11T19:22:49.982Z,5.83
2022-10-11T19:25:17.087Z,6.87
2022-10-11T19:27:44.000Z,6.50
2022-10-11T19:30:11.309Z,6.77
2022-10-11T19:32:38.309Z,6.50
2022-10-11T19:35:05.898Z,7.13
2022-10-11T19:37:33.357Z,6.77
2022-10-11T19:40:00.643Z,7.90
2022-10-11T19:42:27.665Z,7.40
2022-10-11T19:44:54.680Z,6.17
2022-10-11T19:47:21.742Z,5.93
2022-10-11T19:49:48.780Z,5.67
2022-10-11T19:52:16.028Z,5.67
2022-10-11T19:54:43.131Z,6.10
2022-10-11T19:57:10.172Z,6.90
2022-10-11T19:59:37.200Z,6.97
2022-10-11T20:02:04.316Z,10.23
2022-10-11T20:04:51.504Z,11.67
2022-10-11T20:07:18.179Z,19.10
2022-10-11T20:09:45.058Z,23.80
2022-10-11T20:12:12.103Z,21.23
2022-10-11T20:14:39.077Z,18.73
2022-10-11T20:17:06.159Z,16.87
2022-10-11T20:19:33.163Z,13.23
2022-10-11T20:22:01.052Z,9.23
2022-10-11T20:24:32.663Z,9.37
2022-10-11T20:27:02.575Z,8.70
2022-10-11T20:29:29.637Z,8.87
2022-10-11T20:31:58.990Z,7.27
2022-10-11T20:34:27.676Z,7.30
2022-10-11T20:36:54.671Z,7.10
2022-10-11T20:39:21.890Z,6.33
2022-10-11T20:41:49.068Z,6.13
2022-10-11T20:44:16.301Z,6.97
2022-10-11T20:46:43.345Z,7.23
2022-10-11T20:49:12.155Z,6.17
2022-10-11T20:51:41.729Z,6.30
2022-10-11T20:54:09.161Z,6.87
2022-10-11T20:56:37.584Z,6.73
2022-10-11T20:59:06.669Z,7.07
2022-10-11T21:01:37.066Z,7.63
2022-10-11T21:04:05.665Z,7.50
2022-10-11T21:06:33.640Z,7.37
2022-10-11T21:09:01.058Z,9.27
2022-10-11T21:11:29.821Z,10.80
2022-10-11T21:13:59.152Z,8.57
2022-10-11T21:16:27.035Z,16.70
2022-10-11T21:18:55.653Z,10.80
2022-10-11T21:21:26.274Z,9.87
2022-10-11T21:24:01.830Z,9.83
2022-10-11T21:26:29.947Z,7.97
2022-10-11T21:28:59.285Z,8.27
2022-10-11T21:31:29.756Z,8.77
2022-10-11T21:34:01.141Z,8.87
2022-10-11T21:36:28.348Z,7.40
2022-10-11T21:38:56.232Z,8.27
2022-10-11T21:41:30.079Z,8.03
2022-10-11T21:43:58.653Z,8.37
2022-10-11T21:49:20.531Z,7.93
2022-10-11T21:51:47.428Z,7.80
2022-10-11T21:54:14.624Z,7.83
2022-10-11T21:56:41.709Z,7.20
2022-10-11T21:59:12.017Z,6.67
2022-10-11T22:01:40.632Z,6.63
2022-10-11T22:04:07.746Z,5.60
2022-10-11T22:06:35.329Z,6.07
2022-10-11T22:09:03.721Z,6.03
2022-10-11T22:11:31.328Z,5.53
2022-10-11T22:13:58.710Z,5.90
2022-10-11T22:16:25.600Z,5.37
2022-10-11T22:18:53.850Z,6.50
2022-10-11T22:21:23.196Z,5.83
2022-10-11T22:23:52.495Z,5.80
2022-10-11T22:26:22.844Z,5.63
2022-10-11T22:28:50.159Z,5.70
2022-10-11T22:31:19.336Z,5.60
2022-10-11T22:33:46.699Z,5.30
2022-10-11T22:36:14.192Z,6.17
2022-10-11T22:38:42.632Z,5.63
2022-10-11T22:41:10.226Z,4.80
2022-10-11T22:43:37.318Z,5.00
2022-10-11T22:46:05.283Z,5.03
2022-10-11T22:48:32.210Z,5.87
2022-10-11T22:50:59.399Z,5.80
2022-10-11T22:53:26.247Z,5.70
2022-10-11T22:55:53.285Z,5.53
2022-10-11T22:58:20.407Z,6.87
2022-10-11T23:00:47.389Z,4.90
2022-10-11T23:03:18.327Z,5.30
2022-10-11T23:05:54.758Z,5.30
2022-10-11T23:08:21.993Z,4.83
2022-10-11T23:10:49.100Z,5.20
2022-10-11T23:13:16.087Z,4.93
2022-10-11T23:15:43.190Z,4.77
2022-10-11T23:18:10.285Z,5.33
2022-10-11T23:20:39.484Z,5.17
2022-10-11T23:23:07.322Z,5.13
2022-10-11T23:25:34.208Z,4.90
2022-10-11T23:28:02.008Z,4.93
2022-10-11T23:30:29.803Z,4.93
2022-10-11T23:32:57.049Z,4.50
2022-10-11T23:35:24.230Z,4.90
2022-10-11T23:37:53.343Z,4.57
2022-10-11T23:40:20.402Z,5.73
2022-10-11T23:42:47.314Z,4.57
2022-10-11T23:45:14.313Z,4.70
2022-10-11T23:47:41.327Z,5.23
2022-10-11T23:50:08.944Z,4.80
2022-10-11T23:52:36.120Z,5.83
2022-10-11T23:55:03.207Z,5.53
2022-10-11T23:57:30.094Z,5.07
2022-10-11T23:59:57.009Z,5.03
